Time;durP1;ratioP1;P1;durP2;ratioP2;P2;SDS_P1;SDS_P2;PMS_P1;PMS_P2;Temp;Humidity;BMP_temperature;BMP_pressure;BME280_temperature;BME280_humidity;BME280_pressure;Samples;Min_cycle;Max_cycle;Signal;HPM_P1;HPM_P2
2021/10/02 00:01:28;;;;;;;15.10;10.90;;;13.30;99.90;;;;;;5004024;28;20088;-52
2021/10/02 00:31:49;;;;;;;17.92;11.93;;;13.30;99.90;;;;;;5005040;28;20088;-53
2021/10/02 00:34:43;;;;;;;17.35;12.30;;;13.30;99.90;;;;;;5005222;28;20041;-55
2021/10/02 00:45:22;;;;;;;21.25;13.45;;;13.30;99.90;;;;;;5014106;28;20057;-54
2021/10/02 00:47:52;;;;;;;17.60;12.10;;;13.30;99.90;;;;;;5007560;28;20041;-54
2021/10/02 00:50:18;;;;;;;20.30;12.98;;;13.40;99.90;;;;;;5011871;28;20038;-53
2021/10/02 00:52:45;;;;;;;18.20;12.98;;;13.40;99.90;;;;;;5013912;28;20141;-52
2021/10/02 00:55:10;;;;;;;16.83;12.55;;;13.40;99.90;;;;;;5013742;28;20049;-53
2021/10/02 00:57:36;;;;;;;18.83;12.68;;;13.40;99.90;;;;;;5011164;28;20485;-54
2021/10/02 01:00:03;;;;;;;20.13;13.38;;;13.40;99.90;;;;;;5012039;28;20057;-53
2021/10/02 01:02:40;;;;;;;18.90;12.90;;;13.40;99.90;;;;;;5003826;28;20038;-52
2021/10/02 01:05:11;;;;;;;19.58;12.95;;;13.40;99.90;;;;;;5002360;28;20477;-53
2021/10/02 01:07:41;;;;;;;16.20;12.50;;;13.40;99.90;;;;;;5013288;28;20046;-52
2021/10/02 01:10:29;;;;;;;18.83;13.55;;;13.40;99.90;;;;;;5048254;22;20033;-53
2021/10/02 01:13:19;;;;;;;18.73;12.82;;;13.40;99.90;;;;;;5027482;28;20438;-51
2021/10/02 01:15:52;;;;;;;20.67;12.93;;;13.40;99.90;;;;;;5028227;28;20719;-52
2021/10/02 01:18:27;;;;;;;21.77;13.52;;;13.40;99.90;;;;;;5030820;28;20363;-53
2021/10/02 01:21:23;;;;;;;20.83;13.48;;;13.30;99.90;;;;;;5015644;28;20096;-54
2021/10/02 01:24:03;;;;;;;18.13;13.00;;;13.30;99.90;;;;;;4982766;28;20531;-53
2021/10/02 01:27:00;;;;;;;20.27;13.00;;;13.40;99.90;;;;;;5009275;28;20072;-50
2021/10/02 01:29:29;;;;;;;17.63;13.48;;;13.30;99.90;;;;;;5009443;28;20073;-51
2021/10/02 01:37:24;;;;;;;19.42;13.60;;;13.20;99.90;;;;;;5013851;28;20042;-50
2021/10/02 01:48:14;;;;;;;20.77;14.18;;;13.20;99.90;;;;;;5013490;28;20067;-50
2021/10/02 01:50:40;;;;;;;20.17;14.07;;;13.20;99.90;;;;;;4996396;28;20442;-53
2021/10/02 01:53:07;;;;;;;21.70;14.27;;;13.20;99.90;;;;;;4995016;28;20038;-51
2021/10/02 01:55:34;;;;;;;20.27;14.60;;;13.20;99.90;;;;;;5012957;28;20493;-51
2021/10/02 01:58:04;;;;;;;16.92;13.52;;;13.10;99.90;;;;;;5013873;28;20041;-52
2021/10/02 02:00:30;;;;;;;21.42;14.43;;;13.10;99.90;;;;;;5013385;28;20044;-52
2021/10/02 02:03:04;;;;;;;18.23;13.85;;;13.10;99.90;;;;;;5013357;28;20573;-51
2021/10/02 02:05:32;;;;;;;19.77;13.88;;;13.10;99.90;;;;;;5012548;28;20033;-52
2021/10/02 02:08:01;;;;;;;20.05;14.60;;;13.10;99.90;;;;;;5011859;28;20434;-51
2021/10/02 02:10:29;;;;;;;21.08;15.15;;;13.10;99.90;;;;;;5012772;28;20084;-48
2021/10/02 02:12:58;;;;;;;21.52;15.57;;;13.10;99.90;;;;;;5013476;28;20042;-49
2021/10/02 02:15:26;;;;;;;22.95;14.75;;;13.10;99.90;;;;;;5012786;28;20095;-51
2021/10/02 02:17:56;;;;;;;23.33;15.68;;;13.10;99.90;;;;;;5011505;28;20497;-52
2021/10/02 02:20:28;;;;;;;22.90;14.73;;;13.20;99.90;;;;;;5012232;28;20409;-48
2021/10/02 02:22:54;;;;;;;23.05;16.38;;;13.10;99.90;;;;;;5013250;28;20426;-51
2021/10/02 02:25:19;;;;;;;20.52;15.27;;;13.10;99.90;;;;;;5012720;28;20040;-51
2021/10/02 02:27:46;;;;;;;19.63;15.35;;;13.10;99.90;;;;;;5012126;28;20041;-51
2021/10/02 02:30:11;;;;;;;20.45;15.30;;;13.10;99.90;;;;;;5013456;28;20425;-51
2021/10/02 02:32:39;;;;;;;21.80;15.13;;;13.10;99.90;;;;;;5009435;28;20100;-50
2021/10/02 02:35:08;;;;;;;20.70;14.43;;;13.00;99.90;;;;;;5004866;28;20410;-50
2021/10/02 02:37:34;;;;;;;23.73;15.80;;;13.00;99.90;;;;;;5010866;28;20046;-51
2021/10/02 02:40:00;;;;;;;23.45;15.40;;;13.00;99.90;;;;;;5012864;28;20053;-50
2021/10/02 02:42:26;;;;;;;20.92;15.32;;;13.00;99.90;;;;;;5012576;28;20113;-51
2021/10/02 02:44:52;;;;;;;23.77;16.83;;;13.00;99.90;;;;;;5011550;28;20541;-52
2021/10/02 02:47:23;;;;;;;21.58;16.27;;;13.00;99.90;;;;;;5011163;28;20044;-49
2021/10/02 02:50:09;;;;;;;24.17;16.30;;;13.00;99.90;;;;;;5011167;28;20502;-50
2021/10/02 02:52:51;;;;;;;22.98;16.27;;;13.00;99.90;;;;;;5009181;28;20049;-53
2021/10/02 02:55:21;;;;;;;23.73;17.05;;;13.00;99.90;;;;;;5010617;28;20045;-50
2021/10/02 02:57:52;;;;;;;22.23;16.70;;;13.00;99.90;;;;;;5009129;28;20042;-52
2021/10/02 03:00:20;;;;;;;25.47;16.23;;;13.00;99.90;;;;;;5011835;28;20033;-50
2021/10/02 03:02:55;;;;;;;24.05;17.20;;;13.00;99.90;;;;;;5011525;28;20042;-52
2021/10/02 03:05:22;;;;;;;24.88;17.60;;;13.00;99.90;;;;;;5007603;28;20490;-51
2021/10/02 03:07:57;;;;;;;23.98;16.42;;;13.00;99.90;;;;;;5012132;28;20141;-51
2021/10/02 03:10:24;;;;;;;24.85;17.05;;;13.00;99.90;;;;;;5010738;28;20073;-50
2021/10/02 03:12:53;;;;;;;23.35;17.27;;;13.00;99.90;;;;;;5011880;28;20042;-52
2021/10/02 03:15:19;;;;;;;22.27;16.35;;;13.00;99.90;;;;;;5011815;28;20137;-52
2021/10/02 03:17:47;;;;;;;24.75;17.92;;;13.00;99.90;;;;;;5002908;28;20039;-52
2021/10/02 03:20:16;;;;;;;24.88;17.52;;;13.00;99.90;;;;;;4999581;28;20116;-52
2021/10/02 03:22:42;;;;;;;24.58;18.20;;;13.00;99.90;;;;;;5011161;28;20065;-51
2021/10/02 03:25:10;;;;;;;25.48;17.85;;;13.10;99.90;;;;;;5011250;28;20030;-52
2021/10/02 03:27:38;;;;;;;25.13;17.35;;;13.00;99.90;;;;;;5011042;28;20117;-52
2021/10/02 03:30:05;;;;;;;25.80;18.10;;;13.10;99.90;;;;;;5011263;28;20536;-52
2021/10/02 03:32:31;;;;;;;23.52;18.02;;;13.00;99.90;;;;;;5011468;28;20080;-52
2021/10/02 03:34:57;;;;;;;23.65;17.52;;;13.00;99.90;;;;;;4991641;28;20042;-51
2021/10/02 03:37:23;;;;;;;29.63;17.23;;;13.00;99.90;;;;;;5010417;28;20060;-50
2021/10/02 03:39:49;;;;;;;24.02;17.50;;;13.00;99.90;;;;;;4992843;28;20489;-52
2021/10/02 03:42:22;;;;;;;25.65;17.48;;;13.00;99.90;;;;;;5011697;28;20152;-53
2021/10/02 03:44:51;;;;;;;23.77;17.33;;;13.00;99.90;;;;;;5004058;28;20397;-51
2021/10/02 03:47:19;;;;;;;25.08;16.60;;;12.90;99.90;;;;;;5011623;28;20038;-51
2021/10/02 03:49:46;;;;;;;28.45;17.92;;;12.90;99.90;;;;;;5001187;28;20125;-52
2021/10/02 03:52:13;;;;;;;25.52;17.27;;;12.90;99.90;;;;;;5010482;28;20586;-50
2021/10/02 03:54:40;;;;;;;23.50;16.90;;;12.90;99.90;;;;;;5009863;28;20070;-52
2021/10/02 03:57:06;;;;;;;28.70;18.15;;;12.80;99.90;;;;;;5003467;28;20383;-50
2021/10/02 03:59:32;;;;;;;25.60;17.88;;;12.80;99.90;;;;;;5010289;28;20040;-50
2021/10/02 04:01:58;;;;;;;27.35;18.77;;;12.80;99.90;;;;;;5003927;28;20582;-51
2021/10/02 04:04:24;;;;;;;23.95;18.40;;;12.70;99.90;;;;;;5007239;28;20499;-51
2021/10/02 04:06:50;;;;;;;29.88;18.85;;;12.80;99.90;;;;;;5011382;28;20037;-52
2021/10/02 04:09:18;;;;;;;30.15;18.75;;;12.80;99.90;;;;;;5009001;28;20119;-53
2021/10/02 04:11:44;;;;;;;27.35;19.95;;;12.80;99.90;;;;;;5011456;28;20041;-52
2021/10/02 04:14:10;;;;;;;31.08;20.67;;;12.80;99.90;;;;;;4993276;28;20037;-52
2021/10/02 04:16:36;;;;;;;32.20;20.90;;;12.80;99.90;;;;;;5009609;28;20045;-52
2021/10/02 04:19:02;;;;;;;27.88;19.27;;;12.80;99.90;;;;;;5003727;28;20045;-53
2021/10/02 04:21:27;;;;;;;35.42;20.88;;;12.80;99.90;;;;;;5011362;28;20438;-49
2021/10/02 04:23:53;;;;;;;35.97;20.25;;;12.80;99.90;;;;;;5010768;28;20034;-48
2021/10/02 04:26:21;;;;;;;32.42;21.05;;;12.90;99.90;;;;;;5010578;28;20065;-51
2021/10/02 04:28:49;;;;;;;32.55;20.35;;;12.90;99.90;;;;;;5011013;28;20069;-49
2021/10/02 04:31:16;;;;;;;33.13;21.48;;;12.90;99.90;;;;;;5010885;28;20045;-52
2021/10/02 04:33:42;;;;;;;33.92;22.02;;;12.90;99.90;;;;;;5010930;28;20042;-50
2021/10/02 04:36:08;;;;;;;36.00;23.38;;;12.90;99.90;;;;;;5010742;28;20641;-50
2021/10/02 04:38:34;;;;;;;34.40;22.92;;;12.90;99.90;;;;;;5011281;28;20061;-49
2021/10/02 04:40:59;;;;;;;33.80;21.50;;;13.00;99.90;;;;;;5010442;28;20124;-51
2021/10/02 04:43:25;;;;;;;35.47;22.88;;;13.00;99.90;;;;;;5010818;28;20033;-52
2021/10/02 04:45:50;;;;;;;36.50;22.80;;;13.00;99.90;;;;;;5010214;28;20048;-52
2021/10/02 04:48:16;;;;;;;36.92;23.48;;;13.00;99.90;;;;;;5008020;28;20116;-53
2021/10/02 04:50:42;;;;;;;34.53;23.40;;;13.10;99.90;;;;;;5010737;28;20034;-51
2021/10/02 04:53:08;;;;;;;37.30;22.88;;;13.10;99.90;;;;;;5011482;28;20030;-50
2021/10/02 04:55:34;;;;;;;34.92;22.75;;;13.10;99.90;;;;;;5006043;28;20046;-50
2021/10/02 04:58:00;;;;;;;31.95;23.08;;;13.10;99.90;;;;;;5009229;28;20046;-53
2021/10/02 05:00:26;;;;;;;33.80;22.70;;;13.10;99.90;;;;;;5012297;28;20066;-53
2021/10/02 05:02:51;;;;;;;33.55;23.63;;;13.10;99.90;;;;;;5010032;28;20042;-53
2021/10/02 05:05:17;;;;;;;35.65;24.27;;;13.10;99.90;;;;;;5007780;28;20058;-53
2021/10/02 05:07:42;;;;;;;32.88;23.02;;;13.10;99.90;;;;;;5008350;28;20109;-53
2021/10/02 05:10:09;;;;;;;37.85;24.83;;;13.10;99.90;;;;;;5010515;28;20088;-53
2021/10/02 05:12:34;;;;;;;35.78;24.55;;;13.10;99.90;;;;;;4999863;28;20066;-53
2021/10/02 05:15:00;;;;;;;39.63;24.60;;;13.10;99.90;;;;;;5008205;28;20080;-53
2021/10/02 05:17:25;;;;;;;36.92;23.42;;;13.10;99.90;;;;;;5012980;28;20367;-53
2021/10/02 05:19:54;;;;;;;36.50;23.42;;;13.10;99.90;;;;;;5014147;28;20520;-54
2021/10/02 05:22:20;;;;;;;40.08;23.65;;;13.10;99.90;;;;;;5011895;28;20461;-53
2021/10/02 05:24:45;;;;;;;38.15;23.13;;;13.10;99.90;;;;;;5013363;28;20038;-53
2021/10/02 05:27:12;;;;;;;37.67;23.88;;;13.10;99.90;;;;;;5012878;28;20096;-54
2021/10/02 05:29:40;;;;;;;36.03;23.40;;;13.20;99.90;;;;;;5003395;28;20045;-54
2021/10/02 05:32:07;;;;;;;33.08;22.33;;;13.10;99.90;;;;;;5007697;28;20030;-54
2021/10/02 05:34:33;;;;;;;38.20;23.83;;;13.10;99.90;;;;;;5010088;28;20520;-53
2021/10/02 05:36:59;;;;;;;35.35;22.98;;;13.10;99.90;;;;;;5013393;28;20048;-54
2021/10/02 05:39:25;;;;;;;35.42;23.52;;;13.20;99.90;;;;;;5011383;28;20113;-53
2021/10/02 05:41:51;;;;;;;39.60;24.20;;;13.10;99.90;;;;;;5012507;28;20482;-52
2021/10/02 05:44:17;;;;;;;40.75;23.48;;;13.20;99.90;;;;;;5013192;28;20026;-52
2021/10/02 05:46:43;;;;;;;37.40;23.70;;;13.10;99.90;;;;;;5012882;28;20147;-52
2021/10/02 05:49:08;;;;;;;42.70;23.98;;;13.10;99.90;;;;;;5009418;28;20072;-52
2021/10/02 05:51:34;;;;;;;36.03;24.67;;;13.10;99.90;;;;;;5013178;28;20494;-51
2021/10/02 05:53:59;;;;;;;37.78;23.73;;;13.20;99.90;;;;;;4995236;28;20050;-53
2021/10/02 05:56:25;;;;;;;41.20;24.42;;;13.20;99.90;;;;;;5008859;28;20041;-53
2021/10/02 05:58:51;;;;;;;36.25;23.80;;;13.20;99.90;;;;;;5012991;28;20038;-52
2021/10/02 06:01:18;;;;;;;38.10;25.10;;;13.20;99.90;;;;;;5013642;28;20030;-53
2021/10/02 06:03:43;;;;;;;41.25;25.63;;;13.20;99.90;;;;;;5009313;28;20030;-53
2021/10/02 06:06:09;;;;;;;42.75;25.95;;;13.20;99.90;;;;;;5007273;28;20561;-52
2021/10/02 06:08:35;;;;;;;40.38;25.55;;;13.20;99.90;;;;;;5013041;28;20034;-54
2021/10/02 06:11:00;;;;;;;42.45;26.52;;;13.20;99.90;;;;;;5013034;28;20113;-51
2021/10/02 06:13:27;;;;;;;41.17;25.88;;;13.20;99.90;;;;;;5010568;28;20042;-53
2021/10/02 06:15:52;;;;;;;41.30;25.42;;;13.20;99.90;;;;;;5012250;28;20041;-50
2021/10/02 06:18:18;;;;;;;36.47;24.83;;;13.20;99.90;;;;;;5006407;28;20128;-51
2021/10/02 06:20:44;;;;;;;42.90;26.10;;;13.20;99.90;;;;;;5011762;28;20030;-51
2021/10/02 06:23:09;;;;;;;41.92;26.02;;;13.20;99.90;;;;;;5013663;28;20121;-49
2021/10/02 06:25:35;;;;;;;41.10;26.33;;;13.20;99.90;;;;;;5012355;28;20084;-53
2021/10/02 06:28:01;;;;;;;44.13;26.02;;;13.20;99.90;;;;;;5012449;28;20053;-51
2021/10/02 06:30:27;;;;;;;41.53;25.77;;;13.20;99.90;;;;;;5013596;28;20462;-49
2021/10/02 06:32:52;;;;;;;40.00;26.48;;;13.20;99.90;;;;;;5007874;28;20038;-51
2021/10/02 06:35:18;;;;;;;42.03;25.65;;;13.20;99.90;;;;;;5008385;28;20080;-54
2021/10/02 06:37:45;;;;;;;43.97;25.55;;;13.20;99.90;;;;;;5011339;28;20073;-54
2021/10/02 06:40:11;;;;;;;42.65;27.02;;;13.20;99.90;;;;;;5011748;28;20556;-53
2021/10/02 06:42:37;;;;;;;41.72;25.52;;;13.20;99.90;;;;;;5005187;28;20410;-53
2021/10/02 06:45:04;;;;;;;41.38;25.17;;;13.20;99.90;;;;;;5006521;28;20037;-53
2021/10/02 06:47:30;;;;;;;43.60;26.42;;;13.20;99.90;;;;;;5012399;28;20038;-53
2021/10/02 06:49:59;;;;;;;41.17;26.63;;;13.20;99.90;;;;;;5010461;28;20037;-53
2021/10/02 06:52:26;;;;;;;43.58;26.63;;;13.20;99.90;;;;;;5006182;28;20056;-53
2021/10/02 06:54:52;;;;;;;41.10;27.38;;;13.20;99.90;;;;;;5009014;28;20042;-52
2021/10/02 06:57:18;;;;;;;43.67;25.88;;;13.30;99.90;;;;;;5009748;28;20137;-51
2021/10/02 06:59:44;;;;;;;44.83;27.60;;;13.20;99.90;;;;;;5010837;28;20117;-53
2021/10/02 07:02:10;;;;;;;41.58;27.00;;;13.30;99.90;;;;;;4993234;28;20508;-53
2021/10/02 07:04:36;;;;;;;45.63;26.98;;;13.30;99.90;;;;;;5002772;28;20034;-53
2021/10/02 07:07:02;;;;;;;44.67;28.35;;;13.30;99.90;;;;;;5008181;28;20034;-53
2021/10/02 07:09:33;;;;;;;46.75;27.98;;;13.30;99.90;;;;;;5010164;28;20049;-52
2021/10/02 07:12:02;;;;;;;45.83;27.87;;;13.30;99.90;;;;;;5012750;28;20038;-52
2021/10/02 07:14:27;;;;;;;44.08;27.63;;;13.30;99.90;;;;;;5008073;28;20757;-53
2021/10/02 07:16:53;;;;;;;50.15;27.95;;;13.30;99.90;;;;;;5010187;28;20046;-53
2021/10/02 07:19:19;;;;;;;41.22;27.80;;;13.30;99.90;;;;;;5008341;28;20033;-52
2021/10/02 07:21:44;;;;;;;48.72;28.48;;;13.30;99.90;;;;;;5008382;28;20453;-49
2021/10/02 07:24:13;;;;;;;48.20;27.30;;;13.30;99.90;;;;;;5008839;28;20764;-53
2021/10/02 07:26:40;;;;;;;46.60;27.70;;;13.30;99.90;;;;;;5004923;28;20056;-53
2021/10/02 07:29:05;;;;;;;40.40;26.10;;;13.30;99.90;;;;;;4998905;28;20053;-52
2021/10/02 07:31:31;;;;;;;42.30;27.23;;;13.30;99.90;;;;;;5000305;28;20042;-52
2021/10/02 07:33:56;;;;;;;44.38;25.77;;;13.40;99.90;;;;;;4994431;28;20100;-51
2021/10/02 07:36:23;;;;;;;40.17;25.10;;;13.40;99.90;;;;;;4997065;28;20029;-49
2021/10/02 07:38:49;;;;;;;36.83;25.55;;;13.40;99.90;;;;;;4994841;28;20047;-53
2021/10/02 07:41:16;;;;;;;39.70;24.77;;;13.50;99.90;;;;;;4999021;28;20406;-53
2021/10/02 07:43:43;;;;;;;35.72;25.25;;;13.50;99.90;;;;;;5001169;28;20143;-53
2021/10/02 07:46:12;;;;;;;43.22;24.20;;;13.60;99.90;;;;;;4996905;28;20041;-52
2021/10/02 07:48:40;;;;;;;36.38;25.25;;;13.60;99.90;;;;;;4995833;28;20410;-53
2021/10/02 07:51:06;;;;;;;37.95;25.08;;;13.60;99.90;;;;;;4995713;28;20070;-52
2021/10/02 07:53:32;;;;;;;38.72;25.42;;;13.70;99.90;;;;;;4996465;28;20046;-53
2021/10/02 07:56:00;;;;;;;35.17;23.80;;;13.70;99.90;;;;;;4999669;28;20033;-52
2021/10/02 07:58:25;;;;;;;36.00;23.90;;;13.70;99.90;;;;;;5000161;28;20038;-52
2021/10/02 08:00:56;;;;;;;35.25;24.05;;;13.70;99.90;;;;;;4999471;28;20125;-53
2021/10/02 08:03:23;;;;;;;37.42;25.35;;;13.60;99.90;;;;;;4995960;28;20030;-53
2021/10/02 08:05:49;;;;;;;38.65;24.80;;;13.60;99.90;;;;;;5000883;28;20042;-53
2021/10/02 08:08:16;;;;;;;40.00;24.90;;;13.60;99.90;;;;;;4996500;28;20039;-53
2021/10/02 08:10:43;;;;;;;36.90;23.92;;;13.70;99.90;;;;;;4994616;28;20449;-53
2021/10/02 08:13:12;;;;;;;35.10;24.42;;;13.70;99.90;;;;;;5001802;28;20465;-53
2021/10/02 08:15:41;;;;;;;37.95;25.00;;;13.70;99.90;;;;;;5001790;28;20080;-53
2021/10/02 08:18:08;;;;;;;34.08;24.30;;;13.80;99.90;;;;;;4999407;28;20065;-53
2021/10/02 08:20:35;;;;;;;31.38;22.25;;;13.90;99.90;;;;;;5001892;28;20058;-53
2021/10/02 08:23:03;;;;;;;35.15;23.35;;;13.90;99.90;;;;;;4995951;28;20076;-48
2021/10/02 08:25:30;;;;;;;35.75;23.48;;;13.90;99.90;;;;;;4997669;28;20039;-53
2021/10/02 08:27:58;;;;;;;38.70;23.33;;;13.90;99.90;;;;;;4998356;28;20084;-53
2021/10/02 08:30:23;;;;;;;36.50;23.08;;;13.90;99.90;;;;;;4999696;28;20096;-53
2021/10/02 08:32:49;;;;;;;33.72;22.25;;;13.90;99.90;;;;;;4998308;28;20498;-53
2021/10/02 08:35:15;;;;;;;37.13;24.77;;;13.90;99.90;;;;;;5002267;28;20061;-53
2021/10/02 08:37:41;;;;;;;37.08;23.50;;;13.90;99.90;;;;;;4998155;28;20538;-53
2021/10/02 08:40:11;;;;;;;34.85;22.20;;;13.90;99.90;;;;;;4999939;28;20045;-53
2021/10/02 08:42:38;;;;;;;36.50;22.40;;;14.00;99.90;;;;;;4997382;28;20295;-53
2021/10/02 08:45:06;;;;;;;37.28;22.95;;;14.00;99.90;;;;;;4999447;28;20038;-53
2021/10/02 08:47:36;;;;;;;34.90;22.20;;;14.00;99.90;;;;;;5001141;28;20401;-53
2021/10/02 08:50:03;;;;;;;36.35;22.40;;;14.00;99.90;;;;;;4996072;28;20148;-53
2021/10/02 08:52:30;;;;;;;35.00;22.33;;;14.00;99.90;;;;;;4998350;28;20512;-53
2021/10/02 08:54:57;;;;;;;39.97;23.38;;;14.00;99.90;;;;;;4996097;28;20050;-53
2021/10/02 08:57:25;;;;;;;35.20;23.05;;;14.00;99.90;;;;;;5001853;28;20038;-53
2021/10/02 08:59:52;;;;;;;38.45;22.55;;;14.00;99.90;;;;;;4997095;28;20077;-53
2021/10/02 09:02:18;;;;;;;32.38;21.25;;;14.10;99.90;;;;;;4997987;28;20173;-53
2021/10/02 09:04:45;;;;;;;35.25;21.90;;;14.10;99.90;;;;;;4996757;28;20125;-52
2021/10/02 09:07:12;;;;;;;33.92;21.58;;;14.20;99.90;;;;;;4999994;28;20046;-52
2021/10/02 09:09:37;;;;;;;32.92;21.15;;;14.30;99.90;;;;;;4996148;28;20145;-53
2021/10/02 09:12:05;;;;;;;33.33;19.92;;;14.50;99.90;;;;;;4999751;28;20117;-54
2021/10/02 09:14:31;;;;;;;26.23;18.08;;;14.60;99.90;;;;;;4995823;28;20121;-54
2021/10/02 09:16:57;;;;;;;30.45;18.70;;;14.70;99.20;;;;;;4999596;28;20166;-53
2021/10/02 09:19:23;;;;;;;28.52;17.92;;;14.80;99.20;;;;;;4999601;28;20096;-53
2021/10/02 09:22:17;;;;;;;26.38;17.38;;;14.80;99.20;;;;;;4996999;28;20488;-53
2021/10/02 09:24:44;;;;;;;25.23;14.77;;;14.80;99.20;;;;;;4997876;28;20054;-53
2021/10/02 09:27:31;;;;;;;21.25;14.38;;;14.80;98.90;;;;;;4999561;28;20042;-53
2021/10/02 09:30:00;;;;;;;23.67;14.60;;;14.90;98.90;;;;;;5000466;28;20042;-53
2021/10/02 09:32:36;;;;;;;20.92;13.35;;;14.90;99.00;;;;;;5012413;28;20406;-53
2021/10/02 09:35:21;;;;;;;22.40;13.10;;;15.00;98.60;;;;;;4999984;28;20438;-53
2021/10/02 09:37:53;;;;;;;18.85;13.32;;;15.00;98.10;;;;;;5005989;28;20038;-53
2021/10/02 09:40:24;;;;;;;22.52;13.88;;;15.10;98.30;;;;;;5003181;28;20049;-53
2021/10/02 09:42:53;;;;;;;18.75;12.77;;;15.20;98.30;;;;;;4999681;28;20079;-55
2021/10/02 09:45:32;;;;;;;17.10;11.43;;;15.40;97.80;;;;;;4997923;28;20045;-55
2021/10/02 09:48:01;;;;;;;18.17;11.02;;;15.40;96.40;;;;;;5001259;28;20058;-54
2021/10/02 09:50:31;;;;;;;15.10;11.10;;;15.40;95.00;;;;;;5003503;28;20046;-55
2021/10/02 09:53:05;;;;;;;19.40;11.18;;;15.40;95.20;;;;;;5005477;28;20263;-54
2021/10/02 09:55:33;;;;;;;15.93;9.05;;;15.30;95.40;;;;;;5000016;28;20442;-54
2021/10/02 09:58:06;;;;;;;13.88;8.10;;;15.40;95.40;;;;;;5002939;28;20034;-55
2021/10/02 10:00:39;;;;;;;13.30;7.88;;;15.50;95.10;;;;;;4998621;28;20058;-55
2021/10/02 10:03:07;;;;;;;14.23;7.25;;;15.60;94.30;;;;;;5000215;28;20038;-54
2021/10/02 10:05:38;;;;;;;14.15;7.03;;;15.70;93.30;;;;;;5000574;28;20129;-53
2021/10/02 10:08:07;;;;;;;14.20;7.65;;;15.70;92.60;;;;;;5000134;28;20759;-53
2021/10/02 10:10:38;;;;;;;11.70;7.53;;;15.70;92.60;;;;;;5001150;28;20053;-55
2021/10/02 10:13:12;;;;;;;10.73;7.35;;;15.70;93.30;;;;;;5000848;28;20406;-55
2021/10/02 10:15:44;;;;;;;17.30;7.53;;;15.70;94.10;;;;;;5004745;28;20041;-55
2021/10/02 10:18:16;;;;;;;12.90;7.57;;;15.80;93.60;;;;;;5008451;28;20049;-54
2021/10/02 10:20:48;;;;;;;12.60;7.17;;;16.00;91.80;;;;;;5003283;28;20030;-55
2021/10/02 10:23:14;;;;;;;11.18;6.45;;;16.00;92.10;;;;;;4992377;28;20292;-54
2021/10/02 10:25:52;;;;;;;13.20;6.85;;;16.00;91.40;;;;;;5004246;28;20482;-55
2021/10/02 10:28:20;;;;;;;11.65;7.00;;;16.10;91.00;;;;;;5005173;28;20038;-53
2021/10/02 10:30:48;;;;;;;10.05;5.95;;;16.10;91.50;;;;;;5004065;28;20030;-53
2021/10/02 10:33:15;;;;;;;12.75;6.60;;;16.20;91.60;;;;;;4997887;28;20039;-55
2021/10/02 10:35:45;;;;;;;14.98;6.80;;;16.10;91.60;;;;;;4999894;28;20252;-55
2021/10/02 10:38:17;;;;;;;14.05;7.63;;;15.90;91.80;;;;;;5008016;28;20051;-54
2021/10/02 10:40:44;;;;;;;12.95;6.80;;;15.80;92.00;;;;;;5010573;28;20033;-51
2021/10/02 10:43:10;;;;;;;12.63;7.00;;;15.70;92.50;;;;;;5011115;28;20060;-51
2021/10/02 10:45:36;;;;;;;17.85;6.25;;;15.70;92.80;;;;;;5009162;28;20041;-51
2021/10/02 10:48:06;;;;;;;11.10;5.68;;;15.80;92.50;;;;;;5007760;28;20172;-54
2021/10/02 10:50:38;;;;;;;11.18;5.57;;;15.90;92.60;;;;;;4997450;28;20038;-52
2021/10/02 10:53:05;;;;;;;59.63;14.60;;;15.90;92.50;;;;;;5005417;28;20046;-55
2021/10/02 10:55:31;;;;;;;8.43;5.15;;;15.90;92.70;;;;;;5003598;28;20336;-55
2021/10/02 10:58:00;;;;;;;10.50;5.20;;;16.00;92.10;;;;;;5008043;28;20040;-55
2021/10/02 11:00:31;;;;;;;14.38;5.50;;;16.00;91.60;;;;;;5000327;28;20044;-56
2021/10/02 11:03:04;;;;;;;11.23;5.10;;;16.00;91.80;;;;;;4998969;28;20031;-53
2021/10/02 11:05:35;;;;;;;14.23;5.43;;;16.00;91.00;;;;;;5000137;28;20096;-56
2021/10/02 11:08:19;;;;;;;13.30;5.95;;;16.10;91.20;;;;;;4996379;28;20077;-56
2021/10/02 11:10:48;;;;;;;11.52;5.00;;;16.00;91.80;;;;;;5004862;28;20675;-56
2021/10/02 11:13:17;;;;;;;7.80;4.78;;;16.00;91.10;;;;;;5003438;28;20079;-56
2021/10/02 11:15:44;;;;;;;13.50;5.57;;;16.00;91.00;;;;;;5006309;28;20127;-55
2021/10/02 11:18:41;;;;;;;11.48;5.22;;;16.10;90.00;;;;;;5002493;28;20042;-53
2021/10/02 11:21:08;;;;;;;11.68;5.13;;;16.10;90.30;;;;;;4988338;28;20457;-55
2021/10/02 11:23:39;;;;;;;9.77;5.50;;;16.00;90.10;;;;;;4989571;28;20826;-54
2021/10/02 11:26:37;;;;;;;14.57;5.60;;;16.00;90.90;;;;;;4995485;28;20060;-53
2021/10/02 11:29:02;;;;;;;11.02;5.93;;;16.00;91.60;;;;;;4998467;28;20387;-55
2021/10/02 11:31:30;;;;;;;8.80;4.95;;;16.00;91.60;;;;;;4998792;28;20053;-55
2021/10/02 11:34:02;;;;;;;11.13;5.55;;;16.00;91.40;;;;;;5000307;28;20080;-55
2021/10/02 11:36:28;;;;;;;10.02;4.85;;;16.00;91.50;;;;;;4985842;28;20104;-55
2021/10/02 11:39:11;;;;;;;10.82;4.80;;;16.00;91.40;;;;;;4997675;28;20042;-52
2021/10/02 11:41:44;;;;;;;10.20;4.68;;;15.90;91.20;;;;;;5002270;28;20103;-54
2021/10/02 11:44:20;;;;;;;9.73;5.30;;;15.90;91.40;;;;;;5001005;28;20116;-55
2021/10/02 11:46:46;;;;;;;10.90;4.95;;;15.90;91.50;;;;;;5000067;28;20038;-55
2021/10/02 11:49:21;;;;;;;8.80;4.80;;;15.80;91.10;;;;;;5011366;28;20057;-57
2021/10/02 11:52:09;;;;;;;10.43;5.03;;;15.80;91.40;;;;;;4990290;28;20096;-54
2021/10/02 11:54:36;;;;;;;12.05;6.07;;;15.70;91.60;;;;;;5005652;28;20034;-54
2021/10/02 11:57:12;;;;;;;8.23;5.32;;;15.70;92.10;;;;;;5007495;28;20037;-56
2021/10/02 11:59:46;;;;;;;10.45;5.20;;;15.70;91.60;;;;;;5010044;28;20490;-56
2021/10/02 12:02:13;;;;;;;11.38;5.30;;;15.60;91.80;;;;;;5007830;28;20045;-55
2021/10/02 12:04:40;;;;;;;8.77;5.03;;;15.60;92.00;;;;;;5008378;28;20042;-56
2021/10/02 12:07:06;;;;;;;11.00;5.45;;;15.60;92.10;;;;;;5003900;28;20419;-56
2021/10/02 12:09:32;;;;;;;10.52;5.50;;;15.60;92.10;;;;;;5009113;28;20112;-57
2021/10/02 12:11:58;;;;;;;10.13;5.03;;;15.60;92.30;;;;;;5007276;28;20490;-56
2021/10/02 12:14:27;;;;;;;11.73;5.00;;;15.60;92.30;;;;;;4998214;28;20046;-57
2021/10/02 12:17:03;;;;;;;10.60;5.28;;;15.60;92.50;;;;;;4991285;28;20049;-57
2021/10/02 12:19:30;;;;;;;11.27;5.10;;;15.60;92.10;;;;;;4990005;28;20513;-54
2021/10/02 12:22:07;;;;;;;12.02;5.60;;;15.60;92.50;;;;;;5007940;28;20096;-57
2021/10/02 12:24:35;;;;;;;9.57;4.95;;;15.50;92.90;;;;;;5001641;28;20168;-54
2021/10/02 12:27:07;;;;;;;12.02;5.60;;;15.50;92.90;;;;;;5006934;28;20124;-58
2021/10/02 12:29:44;;;;;;;13.77;5.55;;;15.50;92.90;;;;;;5008059;28;20038;-54
2021/10/02 12:32:14;;;;;;;14.02;5.70;;;15.40;93.10;;;;;;5006409;28;20099;-56
2021/10/02 12:34:46;;;;;;;10.65;5.28;;;15.40;93.50;;;;;;5006862;28;20046;-56
2021/10/02 12:37:18;;;;;;;14.43;5.80;;;15.40;93.80;;;;;;5006102;28;20038;-56
2021/10/02 12:39:45;;;;;;;10.68;5.18;;;15.40;93.60;;;;;;5004086;28;20029;-54
2021/10/02 12:42:14;;;;;;;12.05;5.65;;;15.40;93.70;;;;;;5007924;28;20033;-54
2021/10/02 12:44:46;;;;;;;13.90;6.07;;;15.40;93.90;;;;;;5001388;28;20030;-56
2021/10/02 12:47:12;;;;;;;8.70;4.95;;;15.30;94.30;;;;;;5005534;28;20038;-54
2021/10/02 12:49:44;;;;;;;10.07;5.25;;;15.40;93.80;;;;;;5008436;28;20065;-55
2021/10/02 12:52:12;;;;;;;7.80;4.90;;;15.50;93.70;;;;;;5011609;28;20037;-54
2021/10/02 12:54:39;;;;;;;11.25;4.95;;;15.40;94.00;;;;;;5006477;28;20046;-51
2021/10/02 12:57:17;;;;;;;11.77;5.70;;;15.40;94.20;;;;;;5009839;28;20042;-54
2021/10/02 12:59:46;;;;;;;13.50;5.05;;;15.50;94.20;;;;;;5006024;28;20049;-51
2021/10/02 13:02:13;;;;;;;11.82;5.07;;;15.50;94.10;;;;;;4994052;28;20041;-52
2021/10/02 13:04:38;;;;;;;11.80;4.97;;;15.50;94.10;;;;;;4989290;28;20454;-53
2021/10/02 13:07:07;;;;;;;8.27;4.80;;;15.50;94.40;;;;;;5013696;28;20041;-51
2021/10/02 13:09:56;;;;;;;10.07;4.47;;;15.60;94.10;;;;;;5006881;28;20121;-53
2021/10/02 13:12:29;;;;;;;10.32;5.03;;;15.50;94.10;;;;;;5005010;28;20034;-52
2021/10/02 13:14:59;;;;;;;8.30;4.32;;;15.60;94.30;;;;;;5012412;28;20034;-54
2021/10/02 13:17:25;;;;;;;8.93;5.95;;;15.60;94.30;;;;;;5004373;28;20081;-54
2021/10/02 13:20:05;;;;;;;11.18;5.35;;;15.60;94.50;;;;;;5007083;28;20042;-52
2021/10/02 13:22:38;;;;;;;7.97;3.35;;;15.60;94.60;;;;;;5010138;28;20034;-52
2021/10/02 13:25:24;;;;;;;6.05;3.10;;;15.80;93.90;;;;;;5004869;28;20069;-54
2021/10/02 13:27:56;;;;;;;8.13;3.00;;;15.80;94.00;;;;;;5009998;28;20042;-51
2021/10/02 13:30:23;;;;;;;7.95;3.00;;;15.90;94.20;;;;;;5008781;28;20459;-52